Main page
METAR-TAF:

METAR-TAF

Airports :

Athens International Airport

Athens, Greece

latitude: 37-56N, longitude: 023-56E, elevation: 94 m

Current weather observation

The report was made 30 minutes ago, at 03:50 UTC
Wind 5 kt from the East/Northeast
Temperature 17°C
Humidity 63%
Pressure 1018 hPa
Visibility 10 km or more
Few clouds at a height of 3000 ft

METAR: LGAV 170350Z 06005KT 9999 FEW030 17/10 Q1018 NOSIG

Time: 07:20 (04:20 UTC)

Forecast

The report was made 5 hours and 20 minutes ago, at 23:00 UTC
Forecast valid from 17 at 00 UTC to 17 at 24 UTC
Wind 8 kt from the North/Northeast
Visibility 10 km or more
Few clouds at a height of 3000 ft
Becoming
from 17 at 07 UTC to 17 at 09 UTC
Wind 18 kt from the North/Northeast
Scattered clouds at a height of 2000 ft

TAF: LGAV 162300Z 1700/1724 02008KT 9999 FEW030 BECMG 1707/1709 02018KT SCT020

Weather observations and forecasts of more than 4000 airports (METAR and TAF reports).

The available stations are represented by yellow and red dots on the map.

Hover mouse over dot to see the name of the station.

Then click to see weather observations and forecasts.

To change the map : click on the green buttons with a black cross to zoom in, on the green button with a dash to zoom out, or on the green arrows for adjacent maps.


METAR-TAF: